createdAt,value
2023-05-08T00:01:31.634Z,100573.00
2023-05-08T00:03:58.727Z,100573.21
2023-05-08T00:06:27.792Z,100575.56
2023-05-08T00:08:55.398Z,100576.11
2023-05-08T00:11:22.388Z,100575.29
2023-05-08T00:13:49.332Z,100576.31
2023-05-08T00:16:16.252Z,100576.14
2023-05-08T00:18:48.662Z,100579.46
2023-05-08T00:21:15.563Z,100577.78
2023-05-08T00:23:42.461Z,100579.45
2023-05-08T00:26:09.352Z,100575.33
2023-05-08T00:28:36.163Z,100573.80
2023-05-08T00:31:03.125Z,100575.41
2023-05-08T00:33:30.304Z,100575.08
2023-05-08T00:36:04.550Z,100573.86
2023-05-08T00:38:32.367Z,100569.26
2023-05-08T00:40:59.319Z,100568.92
2023-05-08T00:43:28.420Z,100564.11
2023-05-08T00:46:01.794Z,100566.04
2023-05-08T00:48:29.184Z,100569.17
2023-05-08T00:50:56.029Z,100566.79
2023-05-08T00:53:23.464Z,100566.63
2023-05-08T00:55:51.258Z,100567.97
2023-05-08T00:58:20.805Z,100571.11
2023-05-08T01:00:47.790Z,100573.36
2023-05-08T01:03:14.821Z,100574.77
2023-05-08T01:05:42.134Z,100579.27
2023-05-08T01:08:09.120Z,100573.27
2023-05-08T01:11:03.547Z,100576.33
2023-05-08T01:13:30.426Z,100572.70
2023-05-08T01:16:07.855Z,100578.74
2023-05-08T01:18:42.728Z,100582.45
2023-05-08T01:21:25.438Z,100584.02
2023-05-08T01:24:26.432Z,100587.42
2023-05-08T01:27:18.592Z,100587.09
2023-05-08T01:29:49.189Z,100584.01
2023-05-08T01:32:18.428Z,100585.84
2023-05-08T01:34:58.152Z,100590.48
2023-05-08T01:37:32.179Z,100591.39
2023-05-08T01:40:05.429Z,100594.56
2023-05-08T01:43:04.223Z,100600.98
2023-05-08T01:45:38.356Z,100598.73
2023-05-08T01:48:08.300Z,100600.78
2023-05-08T01:50:45.907Z,100596.24
2023-05-08T01:53:43.155Z,100595.25
2023-05-08T01:56:12.302Z,100598.01
2023-05-08T01:58:39.306Z,100603.07
2023-05-08T02:01:06.304Z,100603.80
2023-05-08T02:03:33.507Z,100603.53
2023-05-08T02:06:01.020Z,100602.98
2023-05-08T02:08:29.033Z,100607.98
2023-05-08T02:10:55.885Z,100609.05
2023-05-08T02:13:23.646Z,100607.36
2023-05-08T02:15:51.385Z,100610.81
2023-05-08T02:18:22.498Z,100611.50
2023-05-08T02:20:49.637Z,100613.98
2023-05-08T02:23:16.722Z,100618.67
2023-05-08T02:25:43.864Z,100620.70
2023-05-08T02:28:10.760Z,100621.01
2023-05-08T02:30:37.589Z,100624.14
2023-05-08T02:33:04.510Z,100622.95
2023-05-08T02:35:31.573Z,100623.80
2023-05-08T02:37:58.834Z,100630.48
2023-05-08T02:40:28.539Z,100633.98
2023-05-08T02:42:55.742Z,100637.88
2023-05-08T02:45:24.607Z,100638.21
2023-05-08T02:48:12.315Z,100638.96
2023-05-08T02:50:42.900Z,100639.98
2023-05-08T02:53:12.663Z,100646.40
2023-05-08T02:55:49.842Z,100643.00
2023-05-08T02:58:40.773Z,100645.32
2023-05-08T03:01:11.835Z,100648.89
2023-05-08T03:03:46.539Z,100654.45
2023-05-08T03:06:14.781Z,100655.14
2023-05-08T03:08:42.324Z,100658.66
2023-05-08T03:11:12.799Z,100659.27
2023-05-08T03:13:39.661Z,100664.95
2023-05-08T03:16:07.079Z,100666.08
2023-05-08T03:19:13.002Z,100663.38
2023-05-08T03:21:39.847Z,100675.55
2023-05-08T03:24:07.402Z,100673.35
2023-05-08T03:26:34.666Z,100675.88
2023-05-08T03:29:01.598Z,100675.83
2023-05-08T03:31:31.699Z,100680.21
2023-05-08T03:33:58.616Z,100681.58
2023-05-08T03:36:27.013Z,100685.65
2023-05-08T03:38:54.928Z,100689.45
2023-05-08T03:41:23.459Z,100689.55
2023-05-08T03:43:50.366Z,100688.97
2023-05-08T03:46:17.407Z,100695.23
2023-05-08T03:48:44.378Z,100700.71
2023-05-08T03:51:11.669Z,100702.58
2023-05-08T03:53:38.845Z,100706.98
2023-05-08T03:56:05.984Z,100708.91
2023-05-08T03:59:09.161Z,100706.45
2023-05-08T04:01:40.981Z,100711.93
2023-05-08T04:04:40.125Z,100714.91
2023-05-08T04:07:11.272Z,100716.23
2023-05-08T04:09:50.106Z,100721.30
2023-05-08T04:12:23.041Z,100721.89
2023-05-08T04:14:56.232Z,100720.35
2023-05-08T04:18:08.940Z,100720.86
2023-05-08T04:20:36.737Z,100726.10
2023-05-08T04:23:03.737Z,100726.41
2023-05-08T04:25:31.141Z,100725.48
2023-05-08T04:27:58.738Z,100727.39
2023-05-08T04:30:27.338Z,100729.70
2023-05-08T04:32:54.415Z,100731.00
2023-05-08T04:35:21.690Z,100731.71
2023-05-08T04:37:49.210Z,100732.80
2023-05-08T04:40:16.609Z,100736.46
2023-05-08T04:42:47.332Z,100737.69
2023-05-08T04:45:15.027Z,100733.52
2023-05-08T04:47:42.246Z,100735.61
2023-05-08T04:50:11.029Z,100738.83
2023-05-08T04:52:37.897Z,100734.72
2023-05-08T04:55:05.105Z,100737.63
2023-05-08T04:57:33.836Z,100736.39
2023-05-08T05:00:01.121Z,100737.73
2023-05-08T05:02:29.122Z,100741.44
2023-05-08T05:04:58.856Z,100737.77
2023-05-08T05:07:26.006Z,100738.23
2023-05-08T05:09:56.058Z,100734.63
2023-05-08T05:12:23.126Z,100741.83
2023-05-08T05:14:49.997Z,100742.72
2023-05-08T05:17:20.175Z,100736.63
2023-05-08T05:19:47.299Z,100734.15
2023-05-08T05:22:14.286Z,100733.80
2023-05-08T05:24:41.819Z,100735.02
2023-05-08T05:27:08.930Z,100743.81
2023-05-08T05:29:36.173Z,100746.34
2023-05-08T05:32:03.448Z,100742.09
2023-05-08T05:34:30.389Z,100743.84
2023-05-08T05:36:57.201Z,100745.33
2023-05-08T05:39:24.082Z,100746.42
2023-05-08T05:41:51.055Z,100743.84
2023-05-08T05:44:18.350Z,100745.25
2023-05-08T05:46:45.607Z,100745.52
2023-05-08T05:49:12.714Z,100742.84
2023-05-08T05:51:39.827Z,100741.66
2023-05-08T05:54:06.694Z,100740.96
2023-05-08T05:56:34.398Z,100740.09
2023-05-08T05:59:01.349Z,100744.64
2023-05-08T06:01:29.282Z,100745.07
2023-05-08T06:03:56.484Z,100740.88
2023-05-08T06:06:23.554Z,100734.69
2023-05-08T06:08:50.374Z,100735.59
2023-05-08T06:11:17.539Z,100734.92
2023-05-08T06:13:44.672Z,100734.76
2023-05-08T06:16:12.229Z,100737.45
2023-05-08T06:18:39.103Z,100738.48
2023-05-08T06:21:06.229Z,100739.48
2023-05-08T06:23:33.523Z,100737.98
2023-05-08T06:26:00.355Z,100735.41
2023-05-08T06:28:27.584Z,100734.02
2023-05-08T06:31:10.515Z,100738.27
2023-05-08T06:33:37.937Z,100730.54
2023-05-08T06:36:06.357Z,100732.39
2023-05-08T06:38:33.226Z,100737.31
2023-05-08T06:41:00.136Z,100735.63
2023-05-08T06:43:27.058Z,100729.42
2023-05-08T06:45:53.981Z,100732.11
2023-05-08T06:48:21.000Z,100733.60
2023-05-08T06:50:48.312Z,100735.52
2023-05-08T06:53:15.168Z,100733.36
2023-05-08T06:55:45.421Z,100735.40
2023-05-08T06:58:12.349Z,100735.33
2023-05-08T07:00:39.168Z,100736.29
2023-05-08T07:03:06.234Z,100737.67
2023-05-08T07:05:33.176Z,100742.18
2023-05-08T07:08:00.271Z,100738.89
2023-05-08T07:10:27.211Z,100738.48
2023-05-08T07:12:54.608Z,100738.52
2023-05-08T07:15:26.506Z,100740.66
2023-05-08T07:17:54.193Z,100743.09
2023-05-08T07:20:21.890Z,100741.73
2023-05-08T07:22:48.935Z,100740.09
2023-05-08T07:25:16.410Z,100740.23
2023-05-08T07:27:43.562Z,100740.82
2023-05-08T07:30:10.903Z,100739.45
2023-05-08T07:32:39.378Z,100742.27
2023-05-08T07:35:13.538Z,100745.84
2023-05-08T07:37:40.580Z,100747.23
2023-05-08T07:40:07.939Z,100746.79
2023-05-08T07:42:41.631Z,100741.71
2023-05-08T07:45:09.874Z,100745.26
2023-05-08T07:47:37.081Z,100751.40
2023-05-08T07:50:04.152Z,100747.64
2023-05-08T07:52:37.422Z,100748.33
2023-05-08T07:55:04.847Z,100744.88
2023-05-08T07:57:41.089Z,100744.77
2023-05-08T08:00:33.549Z,100750.42
2023-05-08T08:03:00.516Z,100747.52
2023-05-08T08:05:30.814Z,100745.34
2023-05-08T08:07:58.069Z,100750.86
2023-05-08T08:10:24.951Z,100747.80
2023-05-08T08:12:51.953Z,100737.42
2023-05-08T08:15:19.018Z,100747.33
2023-05-08T08:17:46.033Z,100747.52
2023-05-08T08:20:12.990Z,100752.80
2023-05-08T08:22:39.861Z,100754.00
2023-05-08T08:25:07.359Z,100752.89
2023-05-08T08:27:34.360Z,100749.48
2023-05-08T08:30:15.071Z,100752.91
2023-05-08T08:32:43.695Z,100752.89
2023-05-08T08:35:11.354Z,100745.53
2023-05-08T08:37:38.417Z,100741.92
2023-05-08T08:40:06.669Z,100735.39
2023-05-08T08:42:33.842Z,100733.16
2023-05-08T08:45:01.269Z,100734.13
2023-05-08T08:47:29.857Z,100732.38
2023-05-08T08:49:58.890Z,100727.21
2023-05-08T08:52:35.656Z,100726.52
2023-05-08T08:55:03.363Z,100726.63
2023-05-08T08:57:33.786Z,100729.79
2023-05-08T09:00:04.597Z,100731.46
2023-05-08T09:02:31.991Z,100729.10
2023-05-08T09:04:59.499Z,100726.11
2023-05-08T09:07:27.089Z,100725.45
2023-05-08T09:09:53.946Z,100730.36
2023-05-08T09:12:21.151Z,100721.42
2023-05-08T09:14:48.205Z,100716.48
2023-05-08T09:17:15.281Z,100729.84
2023-05-08T09:19:42.145Z,100730.35
2023-05-08T09:22:09.442Z,100732.14
2023-05-08T09:24:54.957Z,100732.29
2023-05-08T09:27:22.985Z,100732.19
2023-05-08T09:30:00.844Z,100732.02
2023-05-08T09:32:31.361Z,100733.04
2023-05-08T09:34:58.545Z,100729.55
2023-05-08T09:37:26.127Z,100730.45
2023-05-08T09:39:53.733Z,100727.77
2023-05-08T09:42:21.099Z,100727.65
2023-05-08T09:44:52.573Z,100728.04
2023-05-08T09:47:22.451Z,100722.19
2023-05-08T09:50:02.650Z,100730.33
2023-05-08T09:52:30.060Z,100726.81
2023-05-08T09:55:02.103Z,100719.30
2023-05-08T09:57:29.784Z,100718.85
2023-05-08T10:03:02.445Z,100719.96
2023-05-08T10:05:31.379Z,100718.88
2023-05-08T10:07:59.435Z,100710.02
2023-05-08T10:10:31.227Z,100711.20
2023-05-08T10:12:58.604Z,100710.25
2023-05-08T10:15:28.525Z,100715.64
2023-05-08T10:18:06.184Z,100712.27
2023-05-08T10:20:34.156Z,100708.14
2023-05-08T10:23:01.229Z,100708.98
2023-05-08T10:25:32.043Z,100713.81
2023-05-08T10:28:31.169Z,100708.70
2023-05-08T10:31:00.755Z,100705.16
2023-05-08T10:33:31.396Z,100704.13
2023-05-08T10:36:01.391Z,100696.27
2023-05-08T10:38:28.269Z,100698.23
2023-05-08T10:40:58.260Z,100699.31
2023-05-08T10:43:25.811Z,100698.70
2023-05-08T10:45:56.971Z,100703.22
2023-05-08T10:48:51.372Z,100701.36
2023-05-08T10:51:28.851Z,100700.52
2023-05-08T10:53:57.525Z,100701.67
2023-05-08T10:56:30.692Z,100704.20
2023-05-08T10:58:58.853Z,100706.59
2023-05-08T11:01:26.347Z,100709.20
2023-05-08T11:03:55.605Z,100705.87
2023-05-08T11:06:42.608Z,100706.69
2023-05-08T11:09:09.544Z,100713.13
2023-05-08T11:11:38.614Z,100715.48
2023-05-08T11:14:08.457Z,100714.48
2023-05-08T11:16:53.882Z,100718.41
2023-05-08T11:19:21.608Z,100717.30
2023-05-08T11:22:17.510Z,100713.34
2023-05-08T11:24:58.290Z,100706.69
2023-05-08T11:27:41.584Z,100711.27
2023-05-08T11:30:22.091Z,100708.65
2023-05-08T11:33:04.814Z,100709.61
2023-05-08T11:35:47.723Z,100703.16
2023-05-08T11:38:21.586Z,100700.61
2023-05-08T11:41:04.546Z,100705.17
2023-05-08T11:43:36.244Z,100704.43
2023-05-08T11:46:08.626Z,100706.61
2023-05-08T11:48:35.901Z,100704.46
2023-05-08T11:51:03.531Z,100711.09
2023-05-08T11:53:31.587Z,100709.16
2023-05-08T11:55:59.274Z,100709.22
2023-05-08T11:58:26.399Z,100704.46
2023-05-08T12:00:54.971Z,100693.34
2023-05-08T12:03:22.925Z,100698.32
2023-05-08T12:05:50.318Z,100697.29
2023-05-08T12:08:18.067Z,100702.52
2023-05-08T12:10:54.365Z,100696.81
2023-05-08T12:13:22.073Z,100694.76
2023-05-08T12:15:56.510Z,100695.57
2023-05-08T12:18:24.556Z,100690.84
2023-05-08T12:20:58.516Z,100690.44
2023-05-08T12:23:26.297Z,100696.19
2023-05-08T12:25:56.030Z,100696.88
2023-05-08T12:28:23.017Z,100698.04
2023-05-08T12:30:50.346Z,100694.66
2023-05-08T12:33:17.418Z,100691.85
2023-05-08T12:35:44.406Z,100693.38
2023-05-08T12:38:12.200Z,100694.04
2023-05-08T12:40:46.589Z,100691.11
2023-05-08T12:43:13.651Z,100696.61
2023-05-08T12:45:42.023Z,100695.95
2023-05-08T12:48:09.738Z,100688.40
2023-05-08T12:50:41.306Z,100690.86
2023-05-08T12:53:15.466Z,100687.48
2023-05-08T12:55:56.085Z,100677.14
2023-05-08T12:58:34.719Z,100684.20
2023-05-08T13:01:10.340Z,100679.55
2023-05-08T13:03:37.825Z,100680.77
2023-05-08T13:06:05.113Z,100683.22
2023-05-08T13:08:36.602Z,100682.08
2023-05-08T13:11:04.943Z,100682.65
2023-05-08T13:13:33.415Z,100680.82
2023-05-08T13:16:09.552Z,100683.95
2023-05-08T13:18:37.034Z,100686.30
2023-05-08T13:21:04.172Z,100686.08
2023-05-08T13:23:34.481Z,100683.36
2023-05-08T13:26:01.315Z,100685.05
2023-05-08T13:28:28.194Z,100685.09
2023-05-08T13:30:55.338Z,100692.91
2023-05-08T13:33:22.334Z,100690.33
2023-05-08T13:35:49.299Z,100689.98
2023-05-08T13:38:16.285Z,100689.98
2023-05-08T13:40:43.260Z,100687.70
2023-05-08T13:43:10.061Z,100687.70
2023-05-08T13:45:37.163Z,100685.73
2023-05-08T13:48:04.416Z,100687.86
2023-05-08T13:50:34.716Z,100685.88
2023-05-08T13:53:01.615Z,100681.55
2023-05-08T13:55:28.547Z,100686.38
2023-05-08T13:57:55.393Z,100691.99
2023-05-08T14:00:22.333Z,100691.91
2023-05-08T14:02:51.467Z,100688.77
2023-05-08T14:05:20.146Z,100686.74
2023-05-08T14:07:47.229Z,100686.85
2023-05-08T14:10:14.116Z,100689.27
2023-05-08T14:12:41.149Z,100692.01
2023-05-08T14:15:09.136Z,100692.64
2023-05-08T14:17:36.294Z,100690.70
2023-05-08T14:20:04.026Z,100689.98
2023-05-08T14:22:34.149Z,100688.05
2023-05-08T14:25:01.044Z,100683.71
2023-05-08T14:27:28.077Z,100686.93
2023-05-08T14:29:55.933Z,100686.29
2023-05-08T14:32:22.938Z,100687.35
2023-05-08T14:34:49.954Z,100691.01
2023-05-08T14:37:17.781Z,100691.86
2023-05-08T14:39:45.717Z,100692.02
2023-05-08T14:42:22.726Z,100692.53
2023-05-08T14:44:51.346Z,100694.91
2023-05-08T14:47:18.375Z,100692.52
2023-05-08T14:49:45.388Z,100691.50
2023-05-08T14:52:12.374Z,100689.48
2023-05-08T14:54:39.584Z,100690.01
2023-05-08T14:57:06.770Z,100689.63
2023-05-08T14:59:33.958Z,100688.03
2023-05-08T15:02:01.072Z,100690.60
2023-05-08T15:04:28.207Z,100683.23
2023-05-08T15:06:57.254Z,100684.46
2023-05-08T15:09:24.192Z,100689.93
2023-05-08T15:11:57.530Z,100684.36
2023-05-08T15:14:24.778Z,100686.85
2023-05-08T15:16:51.876Z,100687.91
2023-05-08T15:19:18.877Z,100688.43
2023-05-08T15:21:45.694Z,100685.57
2023-05-08T15:24:12.673Z,100692.84
2023-05-08T15:26:39.478Z,100690.02
2023-05-08T15:29:06.337Z,100691.20
2023-05-08T15:31:33.292Z,100692.55
2023-05-08T15:34:00.179Z,100690.67
2023-05-08T15:36:28.559Z,100692.22
2023-05-08T15:38:55.740Z,100693.90
2023-05-08T15:41:22.658Z,100696.14
2023-05-08T15:43:49.698Z,100689.41
2023-05-08T15:46:16.600Z,100688.52
2023-05-08T15:48:43.740Z,100685.73
2023-05-08T15:51:10.788Z,100689.20
2023-05-08T15:53:37.811Z,100685.77
2023-05-08T15:56:07.811Z,100685.95
2023-05-08T15:58:40.075Z,100683.03
2023-05-08T16:01:06.924Z,100689.15
2023-05-08T16:03:34.178Z,100690.08
2023-05-08T16:06:01.518Z,100693.05
2023-05-08T16:08:30.338Z,100691.30
2023-05-08T16:10:57.295Z,100693.94
2023-05-08T16:13:24.245Z,100692.23
2023-05-08T16:15:51.355Z,100688.94
2023-05-08T16:18:18.264Z,100693.41
2023-05-08T16:20:45.140Z,100693.50
2023-05-08T16:23:12.072Z,100691.75
2023-05-08T16:25:38.967Z,100695.02
2023-05-08T16:28:06.088Z,100694.60
2023-05-08T16:30:32.984Z,100699.02
2023-05-08T16:32:59.890Z,100699.11
2023-05-08T16:35:26.828Z,100694.84
2023-05-08T16:37:54.011Z,100699.12
2023-05-08T16:40:21.455Z,100702.04
2023-05-08T16:42:48.509Z,100702.30
2023-05-08T16:45:15.637Z,100703.73
2023-05-08T16:47:42.790Z,100708.95
2023-05-08T16:50:10.141Z,100705.13
2023-05-08T16:52:37.211Z,100708.92
2023-05-08T16:55:04.399Z,100709.51
2023-05-08T16:57:31.333Z,100710.38
2023-05-08T16:59:58.412Z,100715.29
2023-05-08T17:02:25.710Z,100718.19
2023-05-08T17:04:52.952Z,100722.41
2023-05-08T17:07:19.889Z,100727.99
2023-05-08T17:09:49.346Z,100732.19
2023-05-08T17:12:16.430Z,100732.50
2023-05-08T17:14:43.431Z,100733.45
2023-05-08T17:17:10.360Z,100736.95
2023-05-08T17:19:37.207Z,100740.30
2023-05-08T17:22:04.136Z,100748.45
2023-05-08T17:24:31.230Z,100747.98
2023-05-08T17:26:58.678Z,100752.64
2023-05-08T17:29:25.730Z,100751.43
2023-05-08T17:31:52.879Z,100755.23
2023-05-08T17:34:19.923Z,100758.62
2023-05-08T17:36:46.974Z,100759.23
2023-05-08T17:39:14.088Z,100764.66
2023-05-08T17:41:41.240Z,100764.48
2023-05-08T17:44:08.365Z,100769.52
2023-05-08T17:46:35.532Z,100774.80
2023-05-08T17:49:02.447Z,100775.85
2023-05-08T17:51:29.343Z,100780.55
2023-05-08T17:53:58.879Z,100779.27
2023-05-08T17:56:25.895Z,100785.04
2023-05-08T17:58:53.106Z,100782.29
2023-05-08T18:01:20.516Z,100794.27
2023-05-08T18:03:51.295Z,100792.55
2023-05-08T18:06:18.263Z,100798.41
2023-05-08T18:08:45.884Z,100803.94
2023-05-08T18:11:20.179Z,100800.96
2023-05-08T18:13:47.269Z,100807.40
2023-05-08T18:16:17.993Z,100809.08
2023-05-08T18:18:45.443Z,100813.35
2023-05-08T18:21:12.498Z,100810.02
2023-05-08T18:23:39.718Z,100813.01
2023-05-08T18:26:07.625Z,100812.17
